Weather observations for the past three days for
Marysville Municipal Airport
Metric (Imperial)
Date Time (cdt) Wind (kph) Vis. (km) Weather Sky Cond. Temperature (ºC) Relative Humidity Wind Chill (°C) Heat Index (°C) Pressure Precipitation (cm)
Air Dwpt 6 hour altimeter (cm) sea level (mb) 1 hr 3 hr 6 hr
Max. Min.
09 08:55 S 9 16.09 Fair CLR 15 5 51% 75.74 0.0
09 08:35 SW 6 16.09 Fair CLR 13 6 63% 75.72 0.0
09 08:15 Calm 16.09 Fair CLR 12 6 67% 75.72 0.0
09 07:55 Calm 16.09 Fair CLR 11 6 72% 75.72 0.0
09 07:35 Calm 16.09 Fair CLR 10 6 76% 75.69 0.0
09 07:15 Calm 16.09 Fair CLR 8 7 93% 75.69 0.0
09 06:55 Calm 16.09 Fair CLR 7 6 93% 75.67 0.0
09 06:35 Calm 16.09 Fair CLR 7 6 93% 75.67 0.0
09 06:15 SW 6 16.09 Fair CLR 6 5 93% 75.67 0.0
09 05:55 S 6 16.09 Fair CLR 6 5 93% 75.67 0.0
09 05:35 S 6 16.09 Fair CLR 6 5 93% 75.64 0.0
09 05:15 S 6 16.09 Fair CLR 5 4 93% 75.67 0.0
09 04:35 Calm 16.09 Fair CLR 6 5 93% 75.67 0.0
09 04:15 Calm 16.09 Fair CLR 7 5 87% 75.67 0.0
09 03:55 Calm 16.09 Fair CLR 7 5 87% 75.67 0.0
09 03:35 Calm 16.09 Fair CLR 8 4 76% 75.67 0.0
09 03:15 Calm 16.09 Fair CLR 8 5 82% 75.67 0.0
09 02:55 Calm 16.09 Fair CLR 8 5 82% 75.67 0.0
09 02:35 Calm 16.09 Fair CLR 8 5 82% 75.67 0.0
09 02:15 Calm 16.09 Fair CLR 9 4 71% 75.69 0.0
09 01:55 Calm 16.09 Fair CLR 9 4 71% 75.69 0.0
09 01:35 SW 7 16.09 Fair CLR 12 5 63% 75.69 0.0
09 01:15 SW 11 16.09 Fair CLR 12 5 63% 75.67 0.0
09 00:55 SW 9 16.09 Fair CLR 12 5 63% 75.67 0.0
09 00:35 S 9 16.09 Fair CLR 12 5 63% 75.67 0.0
09 00:15 S 11 16.09 Fair CLR 12 5 63% 75.67 0.0
08 23:55 S 11 16.09 Fair CLR 13 5 59% 75.67 0.0
08 23:35 S 9 16.09 Fair CLR 13 5 59% 75.67 0.0
08 23:15 S 9 16.09 Fair CLR 13 5 59% 75.67 0.0
08 22:55 S 9 16.09 Fair CLR 13 5 59% 75.67 0.0
08 22:35 S 11 16.09 Fair CLR 14 5 55% 75.67 0.0
08 22:15 S 11 16.09 Fair CLR 15 5 51% 75.64 0.0
08 21:55 S 11 16.09 Fair CLR 16 5 48% 75.64 0.0
08 21:35 S 11 16.09 Fair CLR 16 4 45% 75.62 0.0
08 21:15 S 9 16.09 Fair CLR 16 5 48% 75.59 0.0
08 20:55 S 15 16.09 Fair CLR 17 4 42% 75.57 0.0
08 20:35 S 9 16.09 Fair CLR 18 4 40% 75.57 0.0
08 20:15 S 7 16.09 Fair CLR 18 3 37% 75.54 0.0
08 19:55 S 9 16.09 Fair CLR 20 3 33% 75.54 0.0
08 19:35 S 11 16.09 Fair CLR 21 3 31% 75.54 0.0
08 19:15 S 15 16.09 Fair CLR 22 2 27% 75.54 0.0
08 18:55 S 13 16.09 Fair CLR 22 3 29% 75.54 0.0
08 18:35 S 7 16.09 Fair CLR 22 2 27% 75.54 0.0
08 17:55 S 11 16.09 Fair CLR 23 3 27% 75.57 0.0
08 17:35 Calm 16.09 Fair CLR 23 2 25% 75.57 0.0
08 17:15 S 11 16.09 Fair CLR 23 3 27% 75.57 0.0
08 16:55 W 15 16.09 Fair CLR 23 3 27% 75.59 0.0
08 16:35 NW 9 16.09 Fair CLR 22 2 27% 75.59 0.0
08 16:15 S 9 16.09 Fair CLR 22 3 29% 75.62 0.0
08 15:55 S 9 16.09 Fair CLR 23 5 31% 75.64 0.0
08 15:35 W 7 16.09 Fair CLR 22 3 29% 75.67 0.0
08 15:15 SE 11 16.09 Fair CLR 22 4 31% 75.67 0.0
08 14:35 SE 11 16.09 Fair CLR 22 4 31% 75.69 0.0
08 14:15 SE 7 16.09 Partly Cloudy SCT100 20 3 33% 75.69 0.0
08 13:55 SE 7 16.09 Mostly Cloudy SCT065 BKN100 20 3 33% 75.69 0.0
08 13:35 SE 15 16.09 Mostly Cloudy SCT055 BKN075 BKN100 20 3 33% 75.69 0.0
08 13:15 SE 11 16.09 Overcast OVC100 20 3 33% 75.69 0.0
08 12:35 SE 15 16.09 Mostly Cloudy BKN100 20 1 28% 75.69 0.0
08 12:15 SE 19 G 26 16.09 Fair CLR 21 3 31% 75.69 0.0
08 11:55 SE 17 16.09 Partly Cloudy SCT120 20 4 35% 75.69 0.0
08 11:35 E 17 16.09 Mostly Cloudy BKN120 19 4 37% 75.72 0.0
08 11:15 E 9 16.09 Mostly Cloudy BKN120 18 4 40% 75.74 0.0
08 10:55 E 9 16.09 Overcast OVC110 17 4 42% 75.72 0.0
08 10:35 E 9 16.09 Overcast OVC110 17 5 45% 75.69 0.0
08 10:15 E 7 16.09 Overcast OVC110 16 5 48% 75.74 0.0
08 09:55 E 6 16.09 Mostly Cloudy BKN120 16 5 48% 75.72 0.0
08 09:35 E 13 16.09 Partly Cloudy SCT120 15 4 48% 75.69 0.0
08 09:15 NE 13 16.09 Fair CLR 15 5 51% 75.72 0.0
08 08:35 N 9 16.09 Fair CLR 13 7 67% 75.69 0.0
08 08:15 E 6 16.09 Mostly Cloudy BKN110 12 7 72% 75.67 0.0
08 07:55 NE 7 16.09 Overcast OVC110 12 7 72% 75.69 0.0
08 07:35 Calm 16.09 Overcast OVC110 12 6 67% 75.64 0.0
08 07:15 SE 6 11.27 Unknown Precip SCT060 SCT070 OVC100 11 6 72% 75.59 0.0
08 06:55 Calm 16.09 Overcast OVC100 12 3 54% 75.67 0.0
08 06:35 SE 7 16.09 Mostly Cloudy BKN110 12 3 54% 75.59 0.0
08 06:15 E 6 16.09 Partly Cloudy SCT110 12 3 54% 75.57 0.0
08 05:55 SE 9 16.09 Partly Cloudy SCT110 12 2 51% 75.59 0.0
08 05:35 SE 9 16.09 Mostly Cloudy BKN110 12 2 51% 75.59 0.0
08 05:15 S 7 16.09 Overcast OVC110 12 2 51% 75.64 0.0
08 04:55 E 7 16.09 Mostly Cloudy BKN110 12 2 51% 75.62 0.0
08 04:35 E 9 16.09 Partly Cloudy SCT110 12 2 51% 75.64 0.0
08 04:15 N 7 16.09 Mostly Cloudy BKN110 12 2 51% 75.67 0.0
08 03:55 N 15 16.09 Mostly Cloudy BKN110 12 5 63% 75.67 0.0
08 03:35 SE 6 16.09 Mostly Cloudy BKN120 10 5 71% 75.59 0.0
08 03:15 E 6 16.09 Mostly Cloudy SCT060 SCT080 BKN120 11 4 62% 75.62 0.0
08 02:55 Calm 16.09 Unknown Precip SCT050 BKN075 BKN100 12 5 63% 75.64 0.0
08 02:35 SE 6 16.09 Mostly Cloudy BKN110 12 3 54% 75.67 0.0
08 02:15 Calm 16.09 Mostly Cloudy BKN120 12 3 54% 75.67 0.0
08 01:55 E 6 16.09 Mostly Cloudy BKN110 12 3 54% 75.67 0.0
08 01:35 Calm 16.09 Mostly Cloudy BKN110 12 2 51% 75.69 0.0
08 01:15 S 15 16.09 Mostly Cloudy BKN120 13 2 47% 75.74 0.0
08 00:55 E 9 16.09 Partly Cloudy SCT120 13 1 44% 75.69 0.0
08 00:35 E 11 16.09 Partly Cloudy SCT120 13 0 41% 75.69 0.0
08 00:15 E 9 16.09 Partly Cloudy SCT120 12 -1 41% 75.74 0.0
07 23:55 SE 7 16.09 Fair CLR 12 -1 41% 75.74 0.0
07 23:35 SE 7 16.09 Fair CLR 13 -1 38% 75.77 0.0
07 23:15 SE 7 16.09 Fair CLR 13 -2 36% 75.77 0.0
07 22:55 E 7 16.09 Fair CLR 15 -3 29% 75.74 0.0
07 22:35 SE 7 16.09 Fair CLR 15 -2 31% 75.77 0.0
07 22:15 E 7 16.09 Fair CLR 16 -2 29% 75.74 0.0
07 21:55 E 7 16.09 Fair CLR 16 -2 29% 75.74 0.0
07 21:35 NE 6 16.09 Fair CLR 16 -2 29% 75.74 0.0
07 21:15 Calm 16.09 Fair CLR 15 0 36% 75.72 0.0
07 20:55 Calm 16.09 Fair CLR 16 0 34% 75.69 0.0
07 20:35 Calm 16.09 Fair CLR 17 0 32% 75.67 0.0
07 20:15 Calm 16.09 Fair CLR 19 0 28% 75.67 0.0
07 19:55 Calm 16.09 Fair CLR 21 -2 21% 75.64 0.0
07 19:35 NW 6 16.09 Fair CLR 22 -1 22% 75.62 0.0
07 19:15 SW 7 16.09 Fair CLR 23 0 22% 75.62 0.0
07 18:55 W 9 16.09 Fair CLR 24 -2 18% 24 75.62 0.0
07 18:35 W 13 16.09 Fair CLR 24 -1 19% 24 75.64 0.0
07 18:15 W 11 G 28 16.09 Fair CLR 25 -1 18% 25 75.64 0.0
07 17:55 W 13 16.09 Fair CLR 25 -1 18% 25 75.64 0.0
07 17:35 W 20 G 28 16.09 Fair CLR 25 -2 17% 25 75.67 0.0
07 17:15 W 20 16.09 Fair CLR 25 -3 15% 25 75.67 0.0
07 16:55 W 20 G 30 16.09 Fair CLR 25 -2 17% 25 75.67 0.0
07 16:35 W 17 G 31 16.09 Fair CLR 25 -3 15% 25 75.69 0.0
07 16:15 W 19 16.09 Fair CLR 25 -5 13% 25 75.69 0.0
07 15:55 W 24 G 44 16.09 Fair CLR 24 -4 15% 24 75.72 0.0
07 15:35 W 19 G 39 16.09 Fair CLR 24 -3 16% 24 75.74 0.0
07 15:15 W 20 G 44 16.09 Fair CLR 23 -2 19% 75.74 0.0
07 14:55 W 28 G 46 16.09 Fair CLR 23 -2 19% 75.77 0.0
07 14:35 W 24 G 43 16.09 Fair CLR 23 -1 20% 75.79 0.0
07 14:15 SW 22 G 46 16.09 Fair CLR 22 0 23% 75.82 0.0
07 13:55 SW 20 G 39 16.09 Fair CLR 22 0 23% 75.82 0.0
07 13:35 SW 24 G 39 16.09 Fair CLR 21 0 25% 75.82 0.0
07 13:15 SW 30 G 43 16.09 Fair CLR 21 0 25% 75.84 0.0
07 12:55 SW 22 G 43 16.09 Fair CLR 20 0 26% 75.87 0.0
07 12:35 SW 24 G 44 16.09 Fair CLR 20 0 26% 75.9 0.0
07 12:15 SW 26 G 35 16.09 Fair CLR 19 1 30% 75.95 0.0
07 11:55 SW 26 G 37 16.09 Fair CLR 18 1 32% 75.97 0.0
07 11:35 SW 24 G 39 16.09 Fair CLR 18 1 32% 76 0.0
07 11:15 S 28 G 33 16.09 Fair CLR 17 2 37% 76 0.0
07 10:55 S 20 G 28 16.09 Fair CLR 16 2 39% 76 0.0
07 10:35 SW 20 G 37 16.09 Fair CLR 16 2 39% 76.05 0.0
07 10:15 SW 24 16.09 Fair CLR 15 2 42% 76.05 0.0
07 09:55 SW 22 16.09 Fair CLR 15 2 42% 76.07 0.0
07 09:35 SW 19 G 30 16.09 Fair CLR 13 2 47% 76.1 0.0
07 09:15 SW 19 G 28 16.09 Fair CLR 12 3 54% 76.12 0.0
07 08:55 SW 20 16.09 Fair CLR 12 2 51% 76.12 0.0
07 08:35 SW 17 16.09 Fair CLR 11 3 58% 76.12 0.0
07 08:15 SW 15 G 31 16.09 Fair CLR 10 3 62% 8 76.15 0.0
07 07:55 SW 15 16.09 Fair CLR 8 3 71% 6 76.15 0.0
07 07:35 SW 15 16.09 Fair CLR 7 3 76% 5 76.12 0.0
07 07:15 SW 13 16.09 Fair CLR 7 3 76% 5 76.12 0.0
07 06:55 SW 15 16.09 Fair CLR 6 2 76% 3 76.12 0.0
07 06:35 SW 11 16.09 Fair CLR 6 3 81% 4 76.15 0.0
07 06:15 SW 13 16.09 Fair CLR 6 3 81% 4 76.15 0.0
07 05:55 SW 11 16.09 Fair CLR 6 2 76% 4 76.15 0.0
07 05:35 SW 11 16.09 Fair CLR 6 2 76% 4 76.15 0.0
07 05:15 SW 6 16.09 Fair CLR 6 2 76% 76.17 0.0
07 04:55 SW 6 16.09 Fair CLR 6 3 81% 76.17 0.0
07 04:35 SW 7 16.09 Fair CLR 6 3 81% 5 76.17 0.0
07 04:15 SW 9 16.09 Fair CLR 6 2 76% 4 76.2 0.0
07 03:55 S 9 16.09 Fair CLR 6 2 76% 4 76.2 0.0
07 03:35 SW 9 16.09 Fair CLR 6 2 76% 4 76.2 0.0
07 03:15 S 7 16.09 Fair CLR 5 1 76% 4 76.23 0.0
07 02:55 S 7 16.09 Fair CLR 5 1 76% 4 76.23 0.0
07 02:15 S 9 16.09 Fair CLR 6 1 71% 4 76.25 0.0
07 01:55 S 7 16.09 Fair CLR 6 1 71% 5 76.28 0.0
07 01:35 S 7 16.09 Fair CLR 6 0 66% 5 76.28 0.0
07 01:15 S 9 16.09 Fair CLR 6 0 66% 4 76.3 0.0
07 00:55 S 7 16.09 Fair CLR 6 0 66% 5 76.3 0.0
07 00:35 S 6 16.09 Fair CLR 7 0 61% 76.33 0.0
07 00:15 SW 9 16.09 Fair CLR 7 -1 57% 5 76.33 0.0
06 23:55 S 7 16.09 Fair CLR 7 -1 57% 6 76.33 0.0
06 23:35 S 9 16.09 Fair CLR 7 -1 57% 5 76.33 0.0
06 23:15 S 7 16.09 Fair CLR 8 -1 53% 7 76.33 0.0
06 22:55 S 6 16.09 Fair CLR 9 -1 50% 76.33 0.0
06 22:35 SW 7 16.09 Fair CLR 10 -2 43% 9 76.33 0.0
06 22:15 SW 9 16.09 Fair CLR 10 -2 43% 9 76.33 0.0
06 21:35 S 6 16.09 Fair CLR 10 -1 47% 76.3 0.0
06 21:15 Calm 16.09 Fair CLR 9 -2 46% 76.28 0.0
06 20:55 S 6 16.09 Fair CLR 10 -2 43% 76.28 0.0
06 20:35 S 6 16.09 Fair CLR 11 -4 35% 76.28 0.0
06 20:15 Calm 16.09 Fair CLR 13 -6 26% 76.28 0.0
06 19:55 Calm 16.09 Fair CLR 13 -7 24% 76.25 0.0
06 19:35 NW 7 16.09 Fair CLR 15 -7 21% 76.28 0.0
06 19:15 W 11 16.09 Fair CLR 15 -7 21% 76.28 0.0
06 18:55 NW 11 16.09 Fair CLR 16 -8 19% 76.28 0.0
06 18:35 W 15 16.09 Fair CLR 16 -8 19% 76.28 0.0
06 18:15 NW 11 16.09 Fair CLR 15 -8 20% 76.3 0.0
06 17:55 W 11 16.09 Partly Cloudy SCT080 16 -8 19% 76.3 0.0
06 17:35 NW 15 16.09 Mostly Cloudy BKN080 17 -9 16% 76.3 0.0
06 16:55 W 7 16.09 Fair CLR 15 -8 20% 76.33 0.0
06 16:35 W 13 G 26 16.09 Fair CLR 17 -8 17% 76.35 0.0
06 16:15 NW 11 16.09 Fair CLR 16 -8 19% 76.38 0.0
06 15:55 NW 6 16.09 Partly Cloudy SCT080 16 -8 19% 76.38 0.0
06 15:35 S 7 16.09 Mostly Cloudy BKN080 16 -7 20% 76.4 0.0
06 15:15 NW 13 16.09 Partly Cloudy SCT080 16 -8 19% 76.43 0.0
06 14:55 NW 17 G 31 16.09 Partly Cloudy SCT080 16 -8 19% 76.45 0.0
06 14:35 N 15 G 28 16.09 Partly Cloudy SCT080 15 -9 18% 76.45 0.0
06 14:15 N 19 16.09 Fair CLR 15 -10 17% 76.45 0.0
06 13:55 NW 15 G 26 16.09 Fair CLR 15 -9 18% 76.45 0.0
06 13:35 SW 6 16.09 Fair CLR 15 -8 20% 76.45 0.0
06 13:15 NW 19 16.09 Fair CLR 14 -8 21% 76.45 0.0
06 12:55 N 11 16.09 Fair CLR 14 -9 20% 76.48 0.0
06 12:35 NW 17 16.09 Fair CLR 14 -10 18% 76.5 0.0
06 12:15 NW 9 G 15 16.09 Fair CLR 13 -10 19% 76.5 0.0
06 11:55 W 9 16.09 Fair CLR 13 -7 24% 76.5 0.0
06 11:35 W 11 16.09 Fair CLR 13 -6 26% 76.53 0.0
06 11:15 NE 7 16.09 Fair CLR 12 -7 26% 76.53 0.0
06 10:55 N 6 16.09 Fair CLR 11 -6 30% 76.53 0.0
06 10:35 Calm 16.09 Partly Cloudy SCT120 11 -6 30% 76.53 0.0
06 10:15 Calm 16.09 Mostly Cloudy BKN120 10 -5 35% 76.53 0.0
06 09:55 NE 6 16.09 Partly Cloudy SCT120 10 -5 35% 76.5 0.0
06 09:35 N 6 16.09 Fair CLR 9 -3 43% 76.5 0.0
06 09:15 N 7 16.09 Fair CLR 9 -3 43% 8 76.5 0.0
Date Time (cdt) Wind (kph) Vis. (km) Weather Sky Cond. Air Dwpt Max. Min. Relative Humidity Wind Chill (°C) Heat Index (°C) altimeter (cm) sea level (mb) 1 hr 3 hr 6 hr
6 hour
Temperature (ºC) Pressure Precipitation (cm)